Time;durP1;ratioP1;P1;durP2;ratioP2;P2;SDS_P1;SDS_P2;PMS_P1;PMS_P2;Temp;Humidity;BMP_temperature;BMP_pressure;BME280_temperature;BME280_humidity;BME280_pressure;Samples;Min_cycle;Max_cycle;Signal;HPM_P1;HPM_P2
2022/12/30 00:01:07;;;;;;;0.50;0.50;;;5.00;99.90;;;;;;5080632;28;20192;-72
2022/12/30 00:03:36;;;;;;;0.40;0.40;;;4.90;99.90;;;;;;5091812;28;20241;-72
2022/12/30 00:06:04;;;;;;;3.08;1.67;;;4.90;99.90;;;;;;5091934;28;20258;-72
2022/12/30 00:08:48;;;;;;;0.60;0.60;;;4.90;99.90;;;;;;5107331;28;20633;-71
2022/12/30 00:11:31;;;;;;;18.52;1.55;;;4.90;99.90;;;;;;5107754;28;20661;-72
2022/12/30 00:34:09;;;;;;;0.60;0.60;;;4.90;99.90;;;;;;5092007;28;20231;-73
2022/12/30 00:36:38;;;;;;;0.50;0.50;;;4.90;99.90;;;;;;5075250;28;20192;-74
2022/12/30 00:39:04;;;;;;;0.60;0.60;;;4.90;99.90;;;;;;5074123;28;20224;-72
2022/12/30 00:44:14;;;;;;;0.70;0.70;;;4.90;99.90;;;;;;5096143;28;20195;-73
2022/12/30 00:46:51;;;;;;;0.40;0.40;;;4.80;99.90;;;;;;5095590;28;20204;-73
2022/12/30 00:57:31;;;;;;;0.65;0.65;;;4.90;99.90;;;;;;5095351;28;20210;-72
2022/12/30 00:59:56;;;;;;;0.50;0.50;;;4.90;99.90;;;;;;5095433;28;20200;-73
2022/12/30 01:02:25;;;;;;;0.52;0.52;;;4.90;99.90;;;;;;5110673;28;20204;-72
2022/12/30 01:04:51;;;;;;;0.55;0.55;;;4.90;99.90;;;;;;5095198;28;20220;-72
2022/12/30 01:07:20;;;;;;;0.52;0.52;;;4.90;99.90;;;;;;5094662;28;20652;-72
2022/12/30 01:09:45;;;;;;;0.63;0.63;;;4.90;99.90;;;;;;5095113;28;20192;-72
2022/12/30 01:12:11;;;;;;;0.70;0.70;;;4.80;99.90;;;;;;5095425;28;20192;-73
2022/12/30 01:15:06;;;;;;;0.47;0.47;;;4.80;99.90;;;;;;5095354;28;20612;-71
2022/12/30 01:17:33;;;;;;;0.50;0.50;;;4.80;99.90;;;;;;5086169;28;20212;-72
2022/12/30 01:19:59;;;;;;;0.60;0.60;;;4.80;99.90;;;;;;5076941;28;20196;-72
2022/12/30 01:22:26;;;;;;;0.50;0.50;;;4.70;99.90;;;;;;5076913;28;20197;-73
2022/12/30 01:24:51;;;;;;;0.50;0.50;;;4.70;99.90;;;;;;5095074;28;20230;-73
2022/12/30 01:27:17;;;;;;;0.57;0.57;;;4.70;99.90;;;;;;5094508;28;20240;-71
2022/12/30 01:29:44;;;;;;;0.60;0.60;;;4.70;99.90;;;;;;5094906;28;20245;-72
2022/12/30 01:32:15;;;;;;;0.63;0.63;;;4.70;99.90;;;;;;5095064;28;20184;-71
2022/12/30 01:34:44;;;;;;;0.85;0.85;;;4.70;99.90;;;;;;5094649;28;20196;-72
2022/12/30 01:37:12;;;;;;;0.55;0.55;;;4.70;99.90;;;;;;5095060;28;20192;-72
2022/12/30 01:39:41;;;;;;;0.52;0.52;;;4.70;99.90;;;;;;5094414;28;20356;-74
2022/12/30 01:42:19;;;;;;;1.15;1.05;;;4.70;99.90;;;;;;5095454;28;20203;-71
2022/12/30 01:45:16;;;;;;;0.60;0.60;;;4.80;99.90;;;;;;5093580;28;20544;-72
2022/12/30 01:47:47;;;;;;;0.70;0.70;;;4.80;99.90;;;;;;5093735;28;20286;-72
2022/12/30 01:50:26;;;;;;;0.70;0.70;;;4.80;99.90;;;;;;5094492;28;20197;-73
2022/12/30 01:53:03;;;;;;;0.70;0.70;;;4.80;99.90;;;;;;5076080;28;20196;-72
2022/12/30 01:55:45;;;;;;;0.50;0.50;;;4.80;99.90;;;;;;5094451;28;20184;-72
2022/12/30 01:58:20;;;;;;;0.55;0.55;;;4.80;99.90;;;;;;5110605;28;20223;-72
2022/12/30 02:00:48;;;;;;;0.60;0.60;;;4.80;99.90;;;;;;5094572;28;20203;-72
2022/12/30 02:03:15;;;;;;;0.60;0.60;;;4.80;99.90;;;;;;5132284;22;20228;-72
2022/12/30 02:05:43;;;;;;;0.68;0.68;;;4.80;99.90;;;;;;5076213;28;20235;-73
2022/12/30 02:08:12;;;;;;;0.65;0.65;;;4.80;99.90;;;;;;5094324;28;20666;-72
2022/12/30 02:10:41;;;;;;;0.50;0.50;;;4.80;99.90;;;;;;5093945;28;20662;-73
2022/12/30 02:13:11;;;;;;;0.70;0.70;;;4.80;99.90;;;;;;5076152;28;20582;-74
2022/12/30 02:15:49;;;;;;;0.50;0.50;;;4.80;99.90;;;;;;5093897;28;20184;-73
2022/12/30 02:18:45;;;;;;;0.70;0.70;;;4.80;99.90;;;;;;5094230;28;20219;-74
2022/12/30 02:21:30;;;;;;;0.40;0.40;;;4.80;99.90;;;;;;5082990;28;20221;-73
2022/12/30 02:24:10;;;;;;;0.60;0.60;;;4.80;99.90;;;;;;5094254;28;20201;-72
2022/12/30 02:26:48;;;;;;;0.50;0.50;;;4.80;99.90;;;;;;5075579;28;20223;-73
2022/12/30 02:29:37;;;;;;;0.70;0.70;;;4.80;99.90;;;;;;5093697;28;20242;-72
2022/12/30 02:32:15;;;;;;;0.50;0.50;;;4.80;99.90;;;;;;5093208;28;20188;-73
2022/12/30 02:34:58;;;;;;;0.60;0.60;;;4.80;99.90;;;;;;5093137;28;20188;-74
2022/12/30 02:38:08;;;;;;;0.60;0.60;;;4.80;99.90;;;;;;5093357;28;20196;-73
2022/12/30 02:46:14;;;;;;;0.50;0.50;;;4.80;99.90;;;;;;5093619;28;20608;-73
2022/12/30 02:48:45;;;;;;;0.60;0.60;;;4.80;99.90;;;;;;5093189;28;20208;-72
2022/12/30 02:53:56;;;;;;;0.52;0.52;;;4.80;99.90;;;;;;5093631;28;20210;-72
2022/12/30 02:56:22;;;;;;;0.57;0.57;;;4.80;99.90;;;;;;5093122;28;20192;-73
2022/12/30 03:03:57;;;;;;;0.50;0.50;;;4.80;99.90;;;;;;5093042;28;20700;-72
2022/12/30 03:05:28;;;;;;;0.70;0.70;;;4.80;99.90;;;;;;5072130;28;20227;-73
2022/12/30 03:08:06;;;;;;;0.65;0.65;;;4.80;99.90;;;;;;5072845;28;20212;-73
2022/12/30 03:11:12;;;;;;;0.60;0.60;;;4.70;99.90;;;;;;5072599;28;20193;-73
2022/12/30 03:13:44;;;;;;;0.60;0.60;;;4.60;99.90;;;;;;5053150;28;20216;-73
2022/12/30 03:16:19;;;;;;;0.50;0.50;;;4.60;99.90;;;;;;5054527;28;20192;-73
2022/12/30 03:18:46;;;;;;;0.60;0.60;;;4.60;99.90;;;;;;5072074;28;20200;-74
2022/12/30 03:21:12;;;;;;;0.50;0.50;;;4.50;99.90;;;;;;5072622;28;20193;-72
2022/12/30 03:27:04;;;;;;;0.70;0.70;;;4.50;99.90;;;;;;5042604;28;20660;-72
2022/12/30 03:30:00;;;;;;;0.60;0.60;;;4.40;99.90;;;;;;5050046;28;20185;-72
2022/12/30 03:32:27;;;;;;;0.60;0.60;;;4.40;99.90;;;;;;5083858;28;20274;-73
2022/12/30 03:34:53;;;;;;;0.60;0.60;;;4.30;99.90;;;;;;5081146;28;20425;-73
2022/12/30 03:37:28;;;;;;;0.60;0.60;;;4.30;99.90;;;;;;5072027;28;20200;-72
2022/12/30 03:40:15;;;;;;;0.70;0.70;;;4.30;99.90;;;;;;5072326;28;20203;-72
2022/12/30 03:42:41;;;;;;;0.60;0.60;;;4.40;99.90;;;;;;5072034;28;20193;-73
2022/12/30 03:45:07;;;;;;;0.60;0.60;;;4.40;99.90;;;;;;5070784;28;20262;-73
2022/12/30 03:47:33;;;;;;;0.70;0.70;;;4.40;99.90;;;;;;5087530;28;20719;-73
2022/12/30 03:49:59;;;;;;;0.60;0.60;;;4.40;99.90;;;;;;5087269;28;20250;-73
2022/12/30 03:52:24;;;;;;;0.50;0.50;;;4.40;99.90;;;;;;5072030;28;20193;-74
2022/12/30 03:54:51;;;;;;;0.47;0.47;;;4.40;99.90;;;;;;5072399;28;20223;-73
2022/12/30 03:57:18;;;;;;;0.50;0.50;;;4.30;99.90;;;;;;5072243;28;20656;-74
2022/12/30 03:59:44;;;;;;;0.50;0.50;;;4.40;99.90;;;;;;5087616;28;20242;-73
2022/12/30 04:02:10;;;;;;;0.65;0.65;;;4.40;99.90;;;;;;5069964;28;20232;-72
2022/12/30 04:04:35;;;;;;;0.60;0.60;;;4.40;99.90;;;;;;5088193;28;20204;-73
2022/12/30 04:07:02;;;;;;;0.50;0.50;;;4.50;99.90;;;;;;5092104;28;20204;-71
2022/12/30 04:09:28;;;;;;;0.60;0.60;;;4.50;99.90;;;;;;5073885;28;20213;-74
2022/12/30 04:11:53;;;;;;;0.40;0.40;;;4.50;99.90;;;;;;5091367;28;20323;-73
2022/12/30 04:14:19;;;;;;;0.60;0.60;;;4.50;99.90;;;;;;5091823;28;20275;-73
2022/12/30 04:16:45;;;;;;;0.40;0.40;;;4.50;99.90;;;;;;5092160;28;20530;-73
2022/12/30 04:19:11;;;;;;;0.50;0.50;;;4.50;99.90;;;;;;5092238;28;20199;-73
2022/12/30 04:21:37;;;;;;;0.60;0.60;;;4.50;99.90;;;;;;5073348;28;21222;-74
2022/12/30 04:24:03;;;;;;;0.50;0.50;;;4.40;99.90;;;;;;5073540;28;20562;-73
2022/12/30 04:26:29;;;;;;;0.50;0.50;;;4.40;99.90;;;;;;5091682;28;20184;-72
2022/12/30 04:28:55;;;;;;;2.67;1.98;;;4.40;99.90;;;;;;5073485;28;20258;-72
2022/12/30 04:31:20;;;;;;;0.60;0.60;;;4.40;99.90;;;;;;5091504;28;20191;-73
2022/12/30 04:33:50;;;;;;;0.60;0.60;;;4.40;99.90;;;;;;5091576;28;20279;-72
2022/12/30 04:36:17;;;;;;;0.73;0.73;;;4.40;99.90;;;;;;5091514;28;20192;-73
2022/12/30 04:38:42;;;;;;;0.60;0.60;;;4.40;99.90;;;;;;5091192;28;20200;-73
2022/12/30 04:41:08;;;;;;;0.60;0.60;;;4.40;99.90;;;;;;5073202;28;20693;-73
2022/12/30 04:43:34;;;;;;;0.60;0.60;;;4.40;99.90;;;;;;5090867;28;20731;-73
2022/12/30 04:45:59;;;;;;;0.50;0.50;;;4.40;99.90;;;;;;5091433;28;20193;-72
2022/12/30 04:48:25;;;;;;;0.60;0.60;;;4.30;99.90;;;;;;5091504;28;20218;-74
2022/12/30 04:50:51;;;;;;;0.90;0.90;;;4.30;99.90;;;;;;5091499;28;20188;-73
2022/12/30 04:53:17;;;;;;;0.60;0.60;;;4.20;99.90;;;;;;5073765;28;20188;-73
2022/12/30 04:55:42;;;;;;;0.60;0.60;;;4.20;99.90;;;;;;5073693;28;20200;-72
2022/12/30 04:58:09;;;;;;;0.52;0.52;;;4.20;99.90;;;;;;5091454;28;20220;-73
2022/12/30 05:00:35;;;;;;;0.60;0.60;;;4.20;99.90;;;;;;5091503;28;20189;-72
2022/12/30 05:03:01;;;;;;;0.70;0.70;;;4.10;99.90;;;;;;5089239;28;20735;-72
2022/12/30 05:05:27;;;;;;;0.60;0.60;;;4.10;99.90;;;;;;5091469;28;20722;-73
2022/12/30 05:07:53;;;;;;;0.63;0.63;;;4.00;99.90;;;;;;5073510;28;20208;-73
2022/12/30 05:10:19;;;;;;;0.70;0.70;;;4.00;99.90;;;;;;5091389;28;20689;-74
2022/12/30 05:12:45;;;;;;;0.50;0.50;;;4.00;99.90;;;;;;5091569;28;20220;-73
2022/12/30 05:15:10;;;;;;;0.50;0.50;;;4.00;99.90;;;;;;5091554;28;20188;-73
2022/12/30 05:17:36;;;;;;;0.75;0.75;;;4.10;99.90;;;;;;5091393;28;20192;-73
2022/12/30 05:20:02;;;;;;;0.60;0.60;;;4.10;99.90;;;;;;5091451;28;20206;-74
2022/12/30 05:22:28;;;;;;;0.55;0.55;;;4.10;99.90;;;;;;5091393;28;20218;-72
2022/12/30 05:27:38;;;;;;;0.40;0.40;;;4.20;99.90;;;;;;5095242;28;20222;-73
2022/12/30 05:30:04;;;;;;;0.50;0.50;;;4.20;99.90;;;;;;5077018;28;20556;-71
2022/12/30 05:32:30;;;;;;;0.50;0.50;;;4.20;99.90;;;;;;5094276;28;20570;-73
2022/12/30 05:34:55;;;;;;;0.60;0.60;;;4.20;99.90;;;;;;5094927;28;20241;-74
2022/12/30 05:37:21;;;;;;;0.57;0.57;;;4.20;99.90;;;;;;5076292;28;20698;-73
2022/12/30 05:39:47;;;;;;;0.50;0.50;;;4.20;99.90;;;;;;5076298;28;20197;-72
2022/12/30 05:42:13;;;;;;;0.60;0.60;;;4.20;99.90;;;;;;5094612;28;20203;-73
2022/12/30 05:44:38;;;;;;;0.60;0.60;;;4.20;99.90;;;;;;5094445;28;20317;-72
2022/12/30 05:47:04;;;;;;;0.55;0.55;;;4.20;99.90;;;;;;5094717;28;20196;-72
2022/12/30 05:49:30;;;;;;;0.70;0.70;;;4.20;99.90;;;;;;5094433;28;20188;-72
2022/12/30 05:51:55;;;;;;;0.40;0.40;;;4.20;99.90;;;;;;5094552;28;20192;-72
2022/12/30 05:54:21;;;;;;;0.45;0.45;;;4.20;99.90;;;;;;5094055;28;20196;-72
2022/12/30 05:56:47;;;;;;;0.50;0.50;;;4.20;99.90;;;;;;5094501;28;20227;-72
2022/12/30 05:59:13;;;;;;;0.60;0.60;;;4.20;99.90;;;;;;5076885;28;20257;-72
2022/12/30 06:01:38;;;;;;;0.70;0.70;;;4.30;99.90;;;;;;5094580;28;20654;-74
2022/12/30 06:04:04;;;;;;;0.60;0.60;;;4.30;99.90;;;;;;5076034;28;20316;-71
2022/12/30 06:06:30;;;;;;;0.60;0.60;;;4.30;99.90;;;;;;5076012;28;20561;-73
2022/12/30 06:08:56;;;;;;;0.60;0.60;;;4.30;99.90;;;;;;5093883;28;20222;-74
2022/12/30 06:11:22;;;;;;;0.70;0.70;;;4.20;99.90;;;;;;5075598;28;20235;-72
2022/12/30 06:13:47;;;;;;;0.60;0.60;;;4.10;99.90;;;;;;5076121;28;20267;-73
2022/12/30 06:16:13;;;;;;;0.80;0.80;;;4.10;99.90;;;;;;5076091;28;20199;-73
2022/12/30 06:18:39;;;;;;;0.60;0.60;;;4.00;99.90;;;;;;5076067;28;20215;-73
2022/12/30 06:21:04;;;;;;;0.60;0.60;;;3.90;99.90;;;;;;5094264;28;20267;-72
2022/12/30 06:23:31;;;;;;;0.60;0.60;;;3.90;99.90;;;;;;5093894;28;20735;-73
2022/12/30 06:25:58;;;;;;;0.52;0.52;;;3.90;99.90;;;;;;5093926;28;20590;-72
2022/12/30 06:28:26;;;;;;;0.50;0.50;;;3.80;99.90;;;;;;5113892;28;20216;-72
2022/12/30 06:30:52;;;;;;;0.60;0.60;;;3.90;99.90;;;;;;5114342;28;20190;-73
2022/12/30 06:33:19;;;;;;;0.40;0.40;;;3.80;99.90;;;;;;5114017;28;20192;-73
2022/12/30 06:35:46;;;;;;;0.50;0.50;;;3.90;99.90;;;;;;5097632;28;20242;-72
2022/12/30 06:38:12;;;;;;;0.50;0.50;;;4.00;99.90;;;;;;5093599;28;20323;-72
2022/12/30 06:40:38;;;;;;;0.50;0.50;;;3.90;99.90;;;;;;5093669;28;21246;-73
2022/12/30 06:43:04;;;;;;;0.60;0.60;;;3.90;99.90;;;;;;5075504;28;20251;-72
2022/12/30 06:45:30;;;;;;;0.50;0.50;;;3.90;99.90;;;;;;5075563;28;20208;-73
2022/12/30 06:47:56;;;;;;;0.50;0.50;;;3.90;99.90;;;;;;5093212;28;20291;-73
2022/12/30 06:50:22;;;;;;;0.55;0.55;;;3.90;99.90;;;;;;5092735;28;20196;-73
2022/12/30 06:52:48;;;;;;;0.70;0.70;;;3.90;99.90;;;;;;5093577;28;20184;-73
2022/12/30 06:55:13;;;;;;;0.60;0.60;;;3.90;99.90;;;;;;5093545;28;20200;-72
2022/12/30 06:57:39;;;;;;;0.50;0.50;;;3.90;99.90;;;;;;5075241;28;20291;-72
2022/12/30 07:00:07;;;;;;;0.50;0.50;;;3.90;99.90;;;;;;5093320;28;20685;-73
2022/12/30 07:02:33;;;;;;;0.50;0.50;;;3.90;99.90;;;;;;5074479;28;20232;-72
2022/12/30 07:04:59;;;;;;;0.50;0.50;;;4.00;99.90;;;;;;5075094;28;20199;-74
2022/12/30 07:07:25;;;;;;;0.60;0.60;;;4.00;99.90;;;;;;5093042;28;20287;-73
2022/12/30 07:09:50;;;;;;;0.60;0.60;;;4.00;99.90;;;;;;5074883;28;20288;-74
2022/12/30 07:12:16;;;;;;;1.85;1.25;;;4.00;99.90;;;;;;5076014;28;20197;-73
2022/12/30 07:14:42;;;;;;;0.50;0.50;;;4.00;99.90;;;;;;5054792;28;20200;-73
2022/12/30 07:17:08;;;;;;;0.50;0.50;;;4.00;99.90;;;;;;5072847;28;20683;-72
2022/12/30 07:19:34;;;;;;;0.60;0.60;;;3.90;99.90;;;;;;5072668;28;20227;-74
2022/12/30 07:22:00;;;;;;;0.43;0.43;;;3.90;99.90;;;;;;5054794;28;20200;-73
2022/12/30 07:24:26;;;;;;;0.50;0.50;;;3.90;99.90;;;;;;5072346;28;20212;-73
2022/12/30 07:26:51;;;;;;;0.60;0.60;;;3.90;99.90;;;;;;5070616;28;20595;-74
2022/12/30 07:29:17;;;;;;;0.60;0.60;;;3.90;99.90;;;;;;5072423;28;20656;-74
2022/12/30 07:31:43;;;;;;;0.50;0.50;;;3.90;99.90;;;;;;5060435;28;20189;-73
2022/12/30 07:34:09;;;;;;;0.60;0.60;;;3.90;99.90;;;;;;5072525;28;20268;-73
2022/12/30 07:36:34;;;;;;;0.55;0.55;;;3.90;99.90;;;;;;5072224;28;20212;-73
2022/12/30 07:39:00;;;;;;;0.50;0.50;;;3.90;99.90;;;;;;5057443;28;20205;-72
2022/12/30 07:41:27;;;;;;;0.40;0.40;;;3.90;99.90;;;;;;5052491;28;20256;-72
2022/12/30 07:43:52;;;;;;;0.70;0.70;;;3.90;99.90;;;;;;5052302;28;20209;-72
2022/12/30 07:46:18;;;;;;;0.60;0.60;;;3.90;99.90;;;;;;5064563;28;20192;-72
2022/12/30 07:48:44;;;;;;;0.47;0.47;;;3.90;99.90;;;;;;5092187;28;20212;-71
2022/12/30 07:51:15;;;;;;;0.52;0.52;;;3.90;99.90;;;;;;5092257;28;20180;-73
2022/12/30 07:53:41;;;;;;;0.60;0.60;;;3.90;99.90;;;;;;5092259;28;20267;-72
2022/12/30 07:56:09;;;;;;;0.52;0.52;;;3.90;99.90;;;;;;5092444;28;20192;-72
2022/12/30 07:58:35;;;;;;;0.70;0.70;;;3.80;99.90;;;;;;5091961;28;20200;-74
2022/12/30 08:01:10;;;;;;;0.70;0.70;;;3.80;99.90;;;;;;5074104;28;20196;-73
2022/12/30 08:03:36;;;;;;;0.50;0.50;;;3.80;99.90;;;;;;5092146;28;20223;-73
2022/12/30 08:06:14;;;;;;;0.55;0.55;;;3.70;99.90;;;;;;5077603;28;20200;-73
2022/12/30 08:08:40;;;;;;;0.70;0.70;;;3.60;99.90;;;;;;5071694;28;20217;-72
2022/12/30 08:11:07;;;;;;;0.55;0.55;;;3.60;99.90;;;;;;5072048;28;20189;-76
2022/12/30 08:13:35;;;;;;;0.60;0.60;;;3.50;99.90;;;;;;5071249;28;20257;-71
2022/12/30 08:16:11;;;;;;;0.50;0.50;;;3.30;99.90;;;;;;5053833;28;20292;-72
2022/12/30 08:18:37;;;;;;;0.47;0.47;;;3.30;99.90;;;;;;5053717;28;20200;-73
2022/12/30 08:21:06;;;;;;;0.52;0.52;;;3.40;99.90;;;;;;5071992;28;20625;-73
2022/12/30 08:23:32;;;;;;;0.60;0.60;;;3.30;99.90;;;;;;5071663;28;20570;-72
2022/12/30 08:26:06;;;;;;;0.60;0.60;;;3.30;99.90;;;;;;5053703;28;20196;-73
2022/12/30 08:28:32;;;;;;;0.60;0.60;;;3.40;99.90;;;;;;5053609;28;20203;-73
2022/12/30 08:30:58;;;;;;;0.50;0.50;;;3.30;99.90;;;;;;5053842;28;20797;-73
2022/12/30 08:33:24;;;;;;;0.60;0.60;;;3.30;99.90;;;;;;5071471;28;20268;-73
2022/12/30 08:35:49;;;;;;;0.50;0.50;;;3.30;99.90;;;;;;5071780;28;20192;-73
2022/12/30 08:38:18;;;;;;;0.65;0.65;;;3.30;99.90;;;;;;5071637;28;20323;-73
2022/12/30 08:40:43;;;;;;;0.60;0.60;;;3.20;99.90;;;;;;5053514;28;20327;-72
2022/12/30 08:43:09;;;;;;;0.60;0.60;;;3.20;99.90;;;;;;5071457;28;20276;-73
2022/12/30 08:45:35;;;;;;;0.60;0.60;;;3.30;99.90;;;;;;5053366;28;20193;-73
2022/12/30 08:48:00;;;;;;;0.57;0.57;;;3.20;99.90;;;;;;5053603;28;20299;-72
2022/12/30 08:50:26;;;;;;;0.50;0.50;;;3.30;99.90;;;;;;5053522;28;20203;-73
2022/12/30 08:52:52;;;;;;;0.60;0.60;;;3.30;99.90;;;;;;5071668;28;20212;-71
2022/12/30 08:55:18;;;;;;;0.52;0.52;;;3.20;99.90;;;;;;5053363;28;20197;-75
2022/12/30 08:57:43;;;;;;;0.63;0.63;;;3.10;99.90;;;;;;5071635;28;20193;-73
2022/12/30 09:00:10;;;;;;;0.50;0.50;;;3.00;99.90;;;;;;5075675;28;20231;-71
2022/12/30 09:02:37;;;;;;;0.40;0.40;;;3.00;99.90;;;;;;5078683;28;20220;-72
2022/12/30 09:05:02;;;;;;;0.68;0.68;;;2.90;99.90;;;;;;5077224;28;20206;-72
2022/12/30 09:07:29;;;;;;;0.40;0.40;;;2.90;99.90;;;;;;5095387;28;20272;-73
2022/12/30 09:09:55;;;;;;;0.60;0.60;;;2.90;99.90;;;;;;5095648;28;20627;-72
2022/12/30 09:12:20;;;;;;;0.60;0.60;;;3.00;99.90;;;;;;5095308;28;20334;-71
2022/12/30 09:14:46;;;;;;;0.52;0.52;;;3.10;99.90;;;;;;5095364;28;20188;-71
2022/12/30 09:17:12;;;;;;;0.50;0.50;;;3.10;99.90;;;;;;5095468;28;20192;-71
2022/12/30 09:19:37;;;;;;;0.50;0.50;;;3.10;99.90;;;;;;5085662;28;20683;-73
2022/12/30 09:22:03;;;;;;;0.50;0.50;;;3.20;99.90;;;;;;5079427;28;20569;-73
2022/12/30 09:24:29;;;;;;;0.57;0.57;;;3.20;99.90;;;;;;5094982;28;20251;-73
2022/12/30 09:26:55;;;;;;;0.55;0.55;;;3.10;99.90;;;;;;5095398;28;20714;-73
2022/12/30 09:29:20;;;;;;;0.60;0.60;;;3.00;99.90;;;;;;5095008;28;20195;-71
2022/12/30 09:31:46;;;;;;;0.55;0.55;;;3.00;99.90;;;;;;5095139;28;20275;-72
2022/12/30 09:34:12;;;;;;;0.75;0.75;;;2.80;99.90;;;;;;5076328;28;20188;-72
2022/12/30 09:36:38;;;;;;;0.50;0.50;;;2.70;99.90;;;;;;5076704;28;20245;-73
2022/12/30 09:39:04;;;;;;;0.60;0.60;;;2.70;99.90;;;;;;5094692;28;20211;-71
2022/12/30 09:45:03;;;;;;;0.63;0.63;;;2.40;99.90;;;;;;5095285;28;20202;-72
2022/12/30 09:47:45;;;;;;;0.50;0.50;;;2.50;99.90;;;;;;5076398;28;20204;-72
2022/12/30 09:50:41;;;;;;;0.68;0.68;;;2.40;99.90;;;;;;5094661;28;20264;-72
2022/12/30 09:53:38;;;;;;;0.63;0.63;;;2.30;99.90;;;;;;5094714;28;20184;-72
2022/12/30 09:56:21;;;;;;;0.68;0.68;;;2.50;99.90;;;;;;5059525;28;20682;-72
2022/12/30 09:58:46;;;;;;;0.60;0.60;;;2.60;99.90;;;;;;5094441;28;20204;-73
2022/12/30 10:01:40;;;;;;;0.50;0.50;;;2.60;99.90;;;;;;5094390;28;20211;-72
2022/12/30 10:04:15;;;;;;;0.50;0.50;;;2.50;99.90;;;;;;5106536;28;20236;-73
2022/12/30 10:06:50;;;;;;;0.55;0.55;;;2.60;99.90;;;;;;5055978;28;20262;-72
2022/12/30 10:10:00;;;;;;;0.60;0.60;;;2.60;99.90;;;;;;5073662;28;20784;-72
2022/12/30 10:13:00;;;;;;;0.60;0.60;;;2.60;99.90;;;;;;5055013;28;20671;-73
2022/12/30 10:15:49;;;;;;;0.55;0.55;;;2.60;99.90;;;;;;5073964;28;20200;-72
2022/12/30 10:18:23;;;;;;;0.60;0.60;;;2.60;99.90;;;;;;5073972;28;20193;-73
2022/12/30 10:21:16;;;;;;;0.60;0.60;;;2.60;99.90;;;;;;5073797;28;20721;-73
2022/12/30 10:23:54;;;;;;;0.60;0.60;;;2.60;99.90;;;;;;5073644;28;20193;-72
2022/12/30 10:26:25;;;;;;;0.57;0.57;;;2.70;99.90;;;;;;5055698;28;20663;-74
2022/12/30 10:29:04;;;;;;;0.70;0.70;;;2.70;99.90;;;;;;5073596;28;20209;-72
2022/12/30 10:31:34;;;;;;;0.50;0.50;;;2.70;99.90;;;;;;5055856;28;20683;-73
2022/12/30 10:34:15;;;;;;;0.50;0.50;;;2.70;99.90;;;;;;5073105;28;20607;-73
2022/12/30 10:36:46;;;;;;;0.57;0.57;;;2.70;99.90;;;;;;5035597;28;20228;-72
2022/12/30 10:39:22;;;;;;;0.50;0.50;;;2.70;99.90;;;;;;5069153;28;20199;-73
2022/12/30 10:42:25;;;;;;;0.52;0.52;;;2.70;99.90;;;;;;5054905;28;20567;-73
2022/12/30 10:45:12;;;;;;;0.52;0.52;;;2.70;99.90;;;;;;5055650;28;20232;-72
2022/12/30 10:47:56;;;;;;;0.40;0.40;;;2.90;99.90;;;;;;5055007;28;20212;-72
2022/12/30 10:50:40;;;;;;;0.50;0.50;;;3.00;99.90;;;;;;5073505;28;20188;-73
2022/12/30 10:53:15;;;;;;;0.63;0.63;;;3.10;99.90;;;;;;5073074;28;20215;-72
2022/12/30 10:55:53;;;;;;;0.60;0.60;;;3.30;99.90;;;;;;5072865;28;20562;-72
2022/12/30 10:58:32;;;;;;;0.70;0.70;;;3.30;99.90;;;;;;5055003;28;20292;-73
2022/12/30 11:01:00;;;;;;;0.60;0.60;;;3.30;99.90;;;;;;5072967;28;20694;-73
2022/12/30 11:03:40;;;;;;;0.60;0.60;;;3.20;99.90;;;;;;5082953;28;20236;-73
2022/12/30 11:06:19;;;;;;;0.50;0.50;;;3.20;99.90;;;;;;5093325;28;20271;-71
2022/12/30 11:08:46;;;;;;;0.70;0.70;;;3.10;99.90;;;;;;5091767;28;20241;-71
2022/12/30 11:11:12;;;;;;;0.70;0.70;;;3.10;99.90;;;;;;5074829;28;20241;-71
2022/12/30 11:16:33;;;;;;;0.70;0.70;;;3.00;99.90;;;;;;5092926;28;20226;-71
2022/12/30 11:19:02;;;;;;;0.60;0.60;;;3.20;99.90;;;;;;5074784;28;20743;-73
2022/12/30 11:21:31;;;;;;;0.60;0.60;;;3.30;99.90;;;;;;5092201;28;20199;-71
2022/12/30 11:24:00;;;;;;;0.60;0.60;;;3.30;99.90;;;;;;5074654;28;20196;-71
2022/12/30 11:26:29;;;;;;;0.60;0.60;;;3.30;99.90;;;;;;5092546;28;20188;-71
2022/12/30 11:28:59;;;;;;;0.60;0.60;;;3.30;99.90;;;;;;5092902;28;20677;-71
2022/12/30 11:31:54;;;;;;;1.95;1.27;;;3.20;99.90;;;;;;5074153;28;20191;-71
2022/12/30 11:34:26;;;;;;;0.57;0.57;;;3.20;99.90;;;;;;5052633;28;20674;-70
2022/12/30 11:36:52;;;;;;;1.75;1.65;;;3.10;99.90;;;;;;5074696;28;20283;-71
2022/12/30 11:39:23;;;;;;;0.93;0.93;;;3.20;99.90;;;;;;5092311;28;20271;-71
2022/12/30 11:41:52;;;;;;;0.63;0.63;;;3.10;99.90;;;;;;5092480;28;20184;-72
2022/12/30 11:44:26;;;;;;;0.68;0.68;;;3.10;99.90;;;;;;5092262;28;20192;-72
2022/12/30 11:47:04;;;;;;;0.57;0.57;;;3.20;99.90;;;;;;5073854;28;20286;-72
2022/12/30 11:49:45;;;;;;;0.50;0.50;;;3.30;99.90;;;;;;5073864;28;20226;-72
2022/12/30 11:52:25;;;;;;;0.57;0.57;;;3.40;99.90;;;;;;5091997;28;20657;-72
2022/12/30 11:54:55;;;;;;;0.60;0.60;;;3.30;99.90;;;;;;5108180;28;20225;-73
2022/12/30 11:57:30;;;;;;;0.50;0.50;;;3.30;99.90;;;;;;5107901;28;20566;-76
2022/12/30 12:00:02;;;;;;;0.60;0.60;;;3.30;99.90;;;;;;5092255;28;20191;-75
2022/12/30 12:02:45;;;;;;;0.40;0.40;;;3.30;99.90;;;;;;5091722;28;20200;-72
2022/12/30 12:05:19;;;;;;;0.60;0.60;;;3.20;99.90;;;;;;5091741;28;20196;-71
2022/12/30 12:07:47;;;;;;;0.70;0.70;;;3.10;99.90;;;;;;5073670;28;20238;-71
2022/12/30 12:10:54;;;;;;;0.50;0.50;;;3.10;99.90;;;;;;5091680;28;20207;-73
2022/12/30 12:13:28;;;;;;;0.40;0.40;;;3.00;99.90;;;;;;5050329;28;20740;-72
2022/12/30 12:15:58;;;;;;;0.68;0.68;;;3.00;99.90;;;;;;5072029;28;20192;-71
2022/12/30 12:18:36;;;;;;;0.50;0.50;;;3.00;99.90;;;;;;5072424;28;20192;-71
2022/12/30 12:21:24;;;;;;;0.60;0.60;;;3.00;99.90;;;;;;5071995;28;20563;-71
2022/12/30 12:24:19;;;;;;;0.50;0.50;;;2.90;99.90;;;;;;5072165;28;20193;-71
2022/12/30 12:27:14;;;;;;;0.60;0.60;;;2.80;99.90;;;;;;5072143;28;20193;-70
2022/12/30 12:29:41;;;;;;;0.50;0.50;;;2.80;99.90;;;;;;5073775;28;20300;-71
2022/12/30 12:32:36;;;;;;;0.60;0.60;;;2.60;99.90;;;;;;5093370;28;20669;-70
2022/12/30 12:35:14;;;;;;;0.60;0.60;;;2.60;99.90;;;;;;5077919;28;20654;-72
2022/12/30 12:37:52;;;;;;;0.63;0.63;;;2.60;99.90;;;;;;5095830;28;20260;-72
2022/12/30 12:40:39;;;;;;;0.63;0.63;;;2.50;99.90;;;;;;5095812;28;20195;-71
2022/12/30 12:43:35;;;;;;;0.65;0.65;;;2.40;99.90;;;;;;5095970;28;20265;-71
2022/12/30 12:46:24;;;;;;;0.50;0.50;;;2.30;99.90;;;;;;5095920;28;20231;-71
2022/12/30 12:49:29;;;;;;;0.57;0.57;;;2.30;99.90;;;;;;5095861;28;20684;-71
2022/12/30 12:52:18;;;;;;;0.60;0.60;;;2.30;99.90;;;;;;5073998;28;20283;-71
2022/12/30 12:55:16;;;;;;;0.60;0.60;;;2.30;99.90;;;;;;5077431;28;20198;-71
2022/12/30 12:58:10;;;;;;;0.50;0.50;;;2.20;99.90;;;;;;5093285;28;20581;-72
2022/12/30 13:00:42;;;;;;;0.68;0.68;;;2.20;99.90;;;;;;5095513;28;20200;-72
2022/12/30 13:03:23;;;;;;;0.60;0.60;;;2.10;99.90;;;;;;5069393;28;20243;-72
2022/12/30 13:05:52;;;;;;;0.50;0.50;;;2.10;99.90;;;;;;5075155;28;20231;-71
2022/12/30 13:09:19;;;;;;;0.55;0.55;;;2.10;99.90;;;;;;5074520;28;20209;-72
2022/12/30 13:11:55;;;;;;;0.50;0.50;;;2.10;99.90;;;;;;5032707;28;20206;-71
2022/12/30 13:14:39;;;;;;;0.60;0.60;;;2.00;99.90;;;;;;5032558;28;20232;-72
2022/12/30 13:17:24;;;;;;;0.63;0.63;;;2.00;99.90;;;;;;5032669;28;20315;-72
2022/12/30 13:19:56;;;;;;;0.70;0.70;;;2.00;99.90;;;;;;5032610;28;20677;-72
2022/12/30 13:22:30;;;;;;;0.55;0.55;;;2.00;99.90;;;;;;5032382;28;20233;-71
2022/12/30 13:24:58;;;;;;;0.60;0.60;;;1.90;99.90;;;;;;5032352;28;20229;-71
2022/12/30 13:27:30;;;;;;;0.60;0.60;;;1.90;99.90;;;;;;5015645;28;20206;-71
2022/12/30 13:29:58;;;;;;;0.70;0.70;;;1.80;99.90;;;;;;5032401;28;20206;-70
2022/12/30 13:32:42;;;;;;;0.50;0.50;;;1.80;99.90;;;;;;5032367;28;20221;-71
2022/12/30 13:35:31;;;;;;;0.57;0.57;;;1.90;99.90;;;;;;5032319;28;20190;-71
2022/12/30 13:37:57;;;;;;;0.60;0.60;;;1.80;99.90;;;;;;5032086;28;20742;-71
2022/12/30 13:40:28;;;;;;;0.60;0.60;;;1.80;99.90;;;;;;5032173;28;20281;-72
2022/12/30 13:42:57;;;;;;;0.60;0.60;;;1.80;99.90;;;;;;5059282;28;20224;-72
2022/12/30 13:45:32;;;;;;;0.50;0.50;;;1.70;99.90;;;;;;5074076;28;20208;-71
2022/12/30 13:48:15;;;;;;;0.68;0.68;;;1.70;99.90;;;;;;5074516;28;20207;-70
2022/12/30 13:50:43;;;;;;;0.63;0.63;;;1.60;99.90;;;;;;5074347;28;20245;-71
2022/12/30 13:53:34;;;;;;;0.60;0.60;;;1.60;99.90;;;;;;5056557;28;20207;-71
2022/12/30 13:56:00;;;;;;;0.60;0.60;;;1.50;99.90;;;;;;5056409;28;20284;-72
2022/12/30 13:58:31;;;;;;;0.65;0.65;;;1.40;99.90;;;;;;5074282;28;20219;-71
2022/12/30 14:01:18;;;;;;;0.60;0.60;;;1.30;99.90;;;;;;5074318;28;20193;-72
2022/12/30 14:03:51;;;;;;;0.60;0.60;;;1.30;99.90;;;;;;5070380;28;20258;-73
2022/12/30 14:06:25;;;;;;;0.60;0.60;;;1.20;99.90;;;;;;5074108;28;20874;-72
2022/12/30 14:09:08;;;;;;;0.50;0.50;;;1.10;99.90;;;;;;5073922;28;20204;-71
2022/12/30 14:11:34;;;;;;;0.50;0.50;;;1.10;99.90;;;;;;5055892;28;20209;-71
2022/12/30 14:14:19;;;;;;;0.57;0.57;;;1.10;99.90;;;;;;5073731;28;20663;-71
2022/12/30 14:16:53;;;;;;;0.55;0.55;;;1.00;99.90;;;;;;5073493;28;20192;-73
2022/12/30 14:19:45;;;;;;;0.63;0.63;;;1.10;99.90;;;;;;5074736;28;20674;-71